createdAt,value
2019-03-13T00:01:58.979Z,1.73
2019-03-13T00:04:27.961Z,2.00
2019-03-13T00:06:57.037Z,2.30
2019-03-13T00:09:25.783Z,2.43
2019-03-13T00:11:54.838Z,2.30
2019-03-13T00:14:23.938Z,2.50
2019-03-13T00:16:52.669Z,3.30
2019-03-13T00:19:24.538Z,3.57
2019-03-13T00:21:53.427Z,3.27
2019-03-13T00:24:22.187Z,3.80
2019-03-13T00:26:50.938Z,3.90
2019-03-13T00:29:19.757Z,3.87
2019-03-13T00:31:48.509Z,3.20
2019-03-13T00:34:17.534Z,3.67
2019-03-13T00:36:46.645Z,3.03
2019-03-13T00:39:15.362Z,3.20
2019-03-13T00:41:44.437Z,3.23
2019-03-13T00:44:13.165Z,2.42
2019-03-13T00:46:42.638Z,2.77
2019-03-13T00:49:12.389Z,2.50
2019-03-13T00:51:41.394Z,2.37
2019-03-13T00:54:10.123Z,3.22
2019-03-13T00:56:39.378Z,3.17
2019-03-13T00:59:08.819Z,2.97
2019-03-13T01:02:09.327Z,3.30
2019-03-13T01:04:52.356Z,3.20
2019-03-13T01:07:21.244Z,3.60
2019-03-13T01:09:50.106Z,3.20
2019-03-13T01:12:19.005Z,3.33
2019-03-13T01:14:47.757Z,3.13
2019-03-13T01:17:16.786Z,3.23
2019-03-13T01:19:45.540Z,3.27
2019-03-13T01:22:14.450Z,3.23
2019-03-13T01:24:43.468Z,2.87
2019-03-13T01:27:12.882Z,2.87
2019-03-13T01:29:41.630Z,2.87
2019-03-13T01:32:22.792Z,3.00
2019-03-13T01:35:19.735Z,3.02
2019-03-13T01:37:48.513Z,3.70
2019-03-13T01:40:17.359Z,3.70
2019-03-13T01:42:46.462Z,6.10
2019-03-13T01:45:15.660Z,4.05
2019-03-13T01:47:44.381Z,4.10
2019-03-13T01:50:13.698Z,4.37
2019-03-13T01:52:42.673Z,4.73
2019-03-13T01:55:11.506Z,4.43
2019-03-13T01:57:40.491Z,4.60
2019-03-13T02:00:10.939Z,4.83
2019-03-13T02:02:39.714Z,4.00
2019-03-13T02:05:08.656Z,4.90
2019-03-13T02:07:37.397Z,5.57
2019-03-13T02:10:07.018Z,5.07
2019-03-13T02:12:38.848Z,4.23
2019-03-13T02:15:09.000Z,5.30
2019-03-13T02:17:37.829Z,4.42
2019-03-13T02:20:09.786Z,5.30
2019-03-13T02:22:38.654Z,5.15
2019-03-13T02:25:07.776Z,5.80
2019-03-13T02:27:36.530Z,4.53
2019-03-13T02:30:06.615Z,5.03
2019-03-13T02:32:35.358Z,4.77
2019-03-13T02:35:04.804Z,4.17
2019-03-13T02:37:34.036Z,4.60
2019-03-13T02:40:02.866Z,5.03
2019-03-13T02:42:32.408Z,3.97
2019-03-13T02:45:01.507Z,3.98
2019-03-13T02:47:30.507Z,3.80
2019-03-13T02:49:59.529Z,3.93
2019-03-13T02:52:28.370Z,2.77
2019-03-13T02:54:57.209Z,3.30
2019-03-13T02:57:25.947Z,3.27
2019-03-13T02:59:55.607Z,2.43
2019-03-13T03:02:29.462Z,3.00
2019-03-13T03:04:58.193Z,2.23
2019-03-13T03:07:28.023Z,2.20
2019-03-13T03:09:57.374Z,2.77
2019-03-13T03:12:26.343Z,2.17
2019-03-13T03:15:05.822Z,2.20
2019-03-13T03:17:34.535Z,2.45
2019-03-13T03:20:03.855Z,2.07
2019-03-13T03:22:32.582Z,2.00
2019-03-13T03:25:01.578Z,2.03
2019-03-13T03:27:32.831Z,1.82
2019-03-13T03:30:01.835Z,2.00
2019-03-13T03:32:30.808Z,2.20
2019-03-13T03:34:59.736Z,2.03
2019-03-13T03:37:28.755Z,1.77
2019-03-13T03:39:57.641Z,1.72
2019-03-13T03:42:26.393Z,1.60
2019-03-13T03:44:55.230Z,1.42
2019-03-13T03:47:23.992Z,1.43
2019-03-13T03:49:53.042Z,1.40
2019-03-13T03:52:22.098Z,1.30
2019-03-13T03:54:51.126Z,1.10
2019-03-13T03:57:19.870Z,1.05
2019-03-13T03:59:49.278Z,1.20
2019-03-13T04:02:18.006Z,1.62
2019-03-13T04:04:46.980Z,2.20
2019-03-13T04:07:15.909Z,2.23
2019-03-13T04:09:44.883Z,1.20
2019-03-13T04:12:13.871Z,1.40
2019-03-13T04:14:42.681Z,1.30
2019-03-13T04:17:11.645Z,1.60
2019-03-13T04:19:40.415Z,1.10
2019-03-13T04:22:10.659Z,1.50
2019-03-13T04:24:39.914Z,1.75
2019-03-13T04:27:09.226Z,0.83
2019-03-13T04:29:38.194Z,1.10
2019-03-13T04:32:07.166Z,1.50
2019-03-13T04:34:36.428Z,1.00
2019-03-13T04:37:05.154Z,1.07
2019-03-13T04:39:33.898Z,1.17
2019-03-13T04:42:02.887Z,1.23
2019-03-13T04:44:31.914Z,1.47
2019-03-13T04:47:00.659Z,1.20
2019-03-13T04:49:29.450Z,1.17
2019-03-13T04:51:59.220Z,1.60
2019-03-13T04:54:28.506Z,1.33
2019-03-13T04:56:57.483Z,1.17
2019-03-13T04:59:26.767Z,1.50
2019-03-13T05:01:55.505Z,1.13
2019-03-13T05:04:27.622Z,1.35
2019-03-13T05:06:56.637Z,1.10
2019-03-13T05:09:39.213Z,1.80
2019-03-13T05:12:07.971Z,1.03
2019-03-13T05:14:36.939Z,1.30
2019-03-13T05:17:06.066Z,1.33
2019-03-13T05:19:35.091Z,1.10
2019-03-13T05:22:04.163Z,0.90
2019-03-13T05:24:32.893Z,1.60
2019-03-13T05:27:02.134Z,1.83
2019-03-13T05:29:31.664Z,1.37
2019-03-13T05:32:00.945Z,1.63
2019-03-13T05:34:30.180Z,1.37
2019-03-13T05:36:59.551Z,1.40
2019-03-13T05:39:28.626Z,1.67
2019-03-13T05:41:57.386Z,1.53
2019-03-13T05:44:26.404Z,1.47
2019-03-13T05:46:58.217Z,1.45
2019-03-13T05:49:28.522Z,1.53
2019-03-13T05:51:57.518Z,2.20
2019-03-13T05:54:26.274Z,2.13
2019-03-13T05:56:55.577Z,2.40
2019-03-13T05:59:24.327Z,1.57
2019-03-13T06:01:53.053Z,1.63
2019-03-13T06:04:21.844Z,1.35
2019-03-13T06:06:51.390Z,1.90
2019-03-13T06:09:20.378Z,2.00
2019-03-13T06:11:49.121Z,1.57
2019-03-13T06:14:18.099Z,1.70
2019-03-13T06:16:47.346Z,1.93
2019-03-13T06:19:16.329Z,1.77
2019-03-13T06:21:45.313Z,1.55
2019-03-13T06:24:14.046Z,1.80
2019-03-13T06:26:42.798Z,1.93
2019-03-13T06:29:12.076Z,1.80
2019-03-13T06:31:41.102Z,3.03
2019-03-13T06:34:11.671Z,2.00
2019-03-13T06:36:40.527Z,1.60
2019-03-13T06:39:09.522Z,2.00
2019-03-13T06:41:38.308Z,2.00
2019-03-13T06:44:07.281Z,2.55
2019-03-13T06:46:36.233Z,1.47
2019-03-13T06:49:05.190Z,1.60
2019-03-13T06:51:33.945Z,2.00
2019-03-13T06:54:02.917Z,1.93
2019-03-13T06:56:31.934Z,1.80
2019-03-13T06:59:19.522Z,2.50
2019-03-13T07:02:05.840Z,2.23
2019-03-13T07:04:52.201Z,2.00
2019-03-13T07:07:29.682Z,2.00
2019-03-13T07:10:05.882Z,1.23
2019-03-13T07:13:12.566Z,2.00
2019-03-13T07:15:45.914Z,1.77
2019-03-13T07:18:21.714Z,1.67
2019-03-13T07:21:07.598Z,1.37
2019-03-13T07:23:58.553Z,1.93
2019-03-13T07:26:34.725Z,2.00
2019-03-13T07:29:22.855Z,1.73
2019-03-13T07:32:07.877Z,1.50
2019-03-13T07:35:02.477Z,2.07
2019-03-13T07:37:40.189Z,1.60
2019-03-13T07:40:28.786Z,2.23
2019-03-13T07:43:19.465Z,1.25
2019-03-13T07:45:55.446Z,1.60
2019-03-13T07:48:55.437Z,1.13
2019-03-13T07:51:31.778Z,1.30
2019-03-13T07:54:17.323Z,1.70
2019-03-13T07:56:55.833Z,1.75
2019-03-13T07:59:38.295Z,1.90
2019-03-13T08:02:27.525Z,2.20
2019-03-13T08:05:05.547Z,1.87
2019-03-13T08:07:42.377Z,1.40
2019-03-13T08:10:28.750Z,1.30
2019-03-13T08:13:05.899Z,1.80
2019-03-13T08:15:44.053Z,1.87
2019-03-13T08:18:30.596Z,1.00
2019-03-13T08:21:09.698Z,1.80
2019-03-13T08:23:59.044Z,1.97
2019-03-13T08:27:05.099Z,1.63
2019-03-13T08:29:58.482Z,1.50
2019-03-13T08:32:49.219Z,1.32
2019-03-13T08:35:36.201Z,1.20
2019-03-13T08:38:16.149Z,1.10
2019-03-13T08:41:04.102Z,1.67
2019-03-13T08:43:55.406Z,1.15
2019-03-13T08:46:30.381Z,1.33
2019-03-13T08:49:19.004Z,1.23
2019-03-13T08:51:57.690Z,1.30
2019-03-13T08:54:38.569Z,1.00
2019-03-13T08:57:32.995Z,1.20
2019-03-13T09:00:24.046Z,1.60
2019-03-13T09:02:58.523Z,1.50
2019-03-13T09:05:38.935Z,1.60
2019-03-13T09:08:25.334Z,0.93
2019-03-13T09:11:11.641Z,0.90
2019-03-13T09:13:46.556Z,0.88
2019-03-13T09:16:33.586Z,0.93
2019-03-13T09:19:18.673Z,0.70
2019-03-13T09:22:05.961Z,0.88
2019-03-13T09:25:11.742Z,1.20
2019-03-13T09:27:55.162Z,1.20
2019-03-13T09:30:45.991Z,1.30
2019-03-13T09:33:22.507Z,1.60
2019-03-13T09:36:10.071Z,1.30
2019-03-13T09:38:47.280Z,1.17
2019-03-13T09:41:22.474Z,1.07
2019-03-13T09:44:09.487Z,1.27
2019-03-13T09:47:01.916Z,1.20
2019-03-13T09:49:50.367Z,1.13
2019-03-13T09:52:47.587Z,1.33
2019-03-13T09:55:31.633Z,1.90
2019-03-13T09:58:06.623Z,1.40
2019-03-13T10:01:00.768Z,0.80
2019-03-13T10:04:06.802Z,1.03
2019-03-13T10:07:00.736Z,0.90
2019-03-13T10:09:36.862Z,0.90
2019-03-13T10:12:11.882Z,0.87
2019-03-13T10:15:01.049Z,0.90
2019-03-13T10:17:51.742Z,0.87
2019-03-13T10:20:38.238Z,0.70
2019-03-13T10:23:29.265Z,0.60
2019-03-13T10:26:26.889Z,0.90
2019-03-13T10:29:15.304Z,0.77
2019-03-13T10:31:49.532Z,0.60
2019-03-13T10:34:32.163Z,0.50
2019-03-13T10:37:06.948Z,0.90
2019-03-13T10:40:03.893Z,0.83
2019-03-13T10:42:52.246Z,0.50
2019-03-13T10:45:37.917Z,0.70
2019-03-13T10:48:10.999Z,0.60
2019-03-13T10:50:57.871Z,0.77
2019-03-13T10:53:42.061Z,1.00
2019-03-13T10:56:35.964Z,0.63
2019-03-13T10:59:23.237Z,0.90
2019-03-13T11:02:11.897Z,0.87
2019-03-13T11:05:00.547Z,0.70
2019-03-13T11:07:42.569Z,0.60
2019-03-13T11:10:33.750Z,0.60
2019-03-13T11:13:10.454Z,0.83
2019-03-13T11:15:48.093Z,1.10
2019-03-13T11:18:36.478Z,0.57
2019-03-13T11:21:14.234Z,0.70
2019-03-13T11:24:05.177Z,0.60
2019-03-13T11:26:53.573Z,0.40
2019-03-13T11:29:54.242Z,0.70
2019-03-13T11:32:35.593Z,0.60
2019-03-13T11:35:33.002Z,0.67
2019-03-13T11:38:16.984Z,0.50
2019-03-13T11:41:08.454Z,0.60
2019-03-13T11:44:08.370Z,0.47
2019-03-13T11:46:45.110Z,0.60
2019-03-13T11:49:36.035Z,0.80
2019-03-13T11:52:23.258Z,0.40
2019-03-13T11:55:18.161Z,0.60
2019-03-13T11:58:05.691Z,0.60
2019-03-13T12:00:57.934Z,0.67
2019-03-13T12:03:49.450Z,0.60
2019-03-13T12:06:33.239Z,0.43
2019-03-13T12:09:36.494Z,0.60
2019-03-13T12:12:14.734Z,0.50
2019-03-13T12:14:52.182Z,0.40
2019-03-13T12:17:30.858Z,0.50
2019-03-13T12:20:17.991Z,0.50
2019-03-13T12:23:04.423Z,0.83
2019-03-13T12:25:52.506Z,0.70
2019-03-13T12:28:46.349Z,0.50
2019-03-13T12:31:43.535Z,0.50
2019-03-13T12:34:41.028Z,0.40
2019-03-13T12:37:29.063Z,0.40
2019-03-13T12:40:19.987Z,0.40
2019-03-13T12:43:02.246Z,0.50
2019-03-13T12:45:39.590Z,0.50
2019-03-13T12:48:16.940Z,0.57
2019-03-13T12:50:58.111Z,0.53
2019-03-13T12:53:45.374Z,0.40
2019-03-13T12:56:31.768Z,0.60
2019-03-13T12:59:26.315Z,0.50
2019-03-13T13:02:21.002Z,0.50
2019-03-13T13:05:07.713Z,0.62
2019-03-13T13:07:59.987Z,0.80
2019-03-13T13:10:46.570Z,0.67
2019-03-13T13:13:34.574Z,0.73
2019-03-13T13:16:23.596Z,0.90
2019-03-13T13:18:52.003Z,0.60
2019-03-13T13:21:21.369Z,0.53
2019-03-13T13:23:51.165Z,0.73
2019-03-13T13:26:20.434Z,0.50
2019-03-13T13:28:49.752Z,0.80
2019-03-13T13:31:19.406Z,0.90
2019-03-13T13:33:48.673Z,0.80
2019-03-13T13:36:17.934Z,0.60
2019-03-13T13:38:47.239Z,0.60
2019-03-13T13:41:16.250Z,0.60
2019-03-13T13:43:46.044Z,0.90
2019-03-13T13:46:36.298Z,0.73
2019-03-13T13:49:05.689Z,1.00
2019-03-13T13:51:35.247Z,0.80
2019-03-13T13:54:04.838Z,0.73
2019-03-13T13:56:33.863Z,0.70
2019-03-13T13:59:02.983Z,0.97
2019-03-13T14:01:32.374Z,0.62
2019-03-13T14:04:01.621Z,0.80
2019-03-13T14:06:30.936Z,0.80
2019-03-13T14:08:59.939Z,0.70
2019-03-13T14:11:29.290Z,0.80
2019-03-13T14:13:58.752Z,0.60
2019-03-13T14:16:27.661Z,0.50
2019-03-13T14:18:56.890Z,0.70
2019-03-13T14:21:28.767Z,0.40
2019-03-13T14:23:59.027Z,0.50
2019-03-13T14:26:27.977Z,0.90
2019-03-13T14:28:57.211Z,0.97
2019-03-13T14:31:26.181Z,0.57
2019-03-13T14:33:55.426Z,0.70
2019-03-13T14:36:24.412Z,0.30
2019-03-13T14:38:53.476Z,0.40
2019-03-13T14:41:22.530Z,0.47
2019-03-13T14:43:51.431Z,0.40
2019-03-13T14:46:20.928Z,0.83
2019-03-13T14:48:49.945Z,0.50
2019-03-13T14:51:19.090Z,0.33
2019-03-13T14:53:48.123Z,0.40
2019-03-13T14:56:17.324Z,0.80
2019-03-13T14:58:48.035Z,0.60
2019-03-13T15:01:16.943Z,0.40
2019-03-13T15:03:46.027Z,0.50
2019-03-13T15:06:14.827Z,0.60
2019-03-13T15:08:44.006Z,0.60
2019-03-13T15:11:13.405Z,0.60
2019-03-13T15:13:44.505Z,0.45
2019-03-13T15:16:13.511Z,0.50
2019-03-13T15:18:42.314Z,0.60
2019-03-13T15:21:11.770Z,0.50
2019-03-13T15:23:40.957Z,0.50
2019-03-13T15:26:10.137Z,0.80
2019-03-13T15:28:40.550Z,0.70
2019-03-13T15:31:09.738Z,0.50
2019-03-13T15:33:38.718Z,0.50
2019-03-13T15:36:07.675Z,0.50
2019-03-13T15:38:37.164Z,0.50
2019-03-13T15:41:06.380Z,0.40
2019-03-13T15:43:35.283Z,0.63
2019-03-13T15:46:04.222Z,0.60
2019-03-13T15:48:33.149Z,0.70
2019-03-13T15:51:02.154Z,0.63
2019-03-13T15:53:31.429Z,0.60
2019-03-13T15:56:00.225Z,0.50
2019-03-13T15:58:29.043Z,0.60
2019-03-13T16:00:58.391Z,0.50
2019-03-13T16:03:27.180Z,0.53
2019-03-13T16:05:55.983Z,0.70
2019-03-13T16:08:26.482Z,0.80
2019-03-13T16:10:55.242Z,0.90
2019-03-13T16:13:24.209Z,1.07
2019-03-13T16:15:52.978Z,1.70
2019-03-13T16:18:21.958Z,1.13
2019-03-13T16:20:50.979Z,1.45
2019-03-13T16:23:19.829Z,1.30
2019-03-13T16:25:48.762Z,1.00
2019-03-13T16:28:17.513Z,0.90
2019-03-13T16:30:46.561Z,1.30
2019-03-13T16:33:15.320Z,1.37
2019-03-13T16:35:44.311Z,1.13
2019-03-13T16:38:13.070Z,1.00
2019-03-13T16:40:41.908Z,1.10
2019-03-13T16:43:10.730Z,1.10
2019-03-13T16:45:40.235Z,1.00
2019-03-13T16:48:08.976Z,1.40
2019-03-13T16:50:38.317Z,1.40
2019-03-13T16:53:07.745Z,1.03
2019-03-13T16:55:37.343Z,1.53
2019-03-13T16:58:06.575Z,1.50
2019-03-13T17:00:35.635Z,1.75
2019-03-13T17:03:04.677Z,1.60
2019-03-13T17:05:33.623Z,1.93
2019-03-13T17:08:02.818Z,2.00
2019-03-13T17:10:31.850Z,2.40
2019-03-13T17:13:05.544Z,1.90
2019-03-13T17:15:34.003Z,1.97
2019-03-13T17:18:03.114Z,2.10
2019-03-13T17:20:34.809Z,2.27
2019-03-13T17:23:03.649Z,2.37
2019-03-13T17:25:32.381Z,3.30
2019-03-13T17:28:01.158Z,3.27
2019-03-13T17:30:30.054Z,2.13
2019-03-13T17:32:59.604Z,2.73
2019-03-13T17:35:28.766Z,2.50
2019-03-13T17:37:57.779Z,1.90
2019-03-13T17:40:26.963Z,2.97
2019-03-13T17:42:56.038Z,2.70
2019-03-13T17:45:25.314Z,3.33
2019-03-13T17:47:54.387Z,2.40
2019-03-13T17:50:23.829Z,3.17
2019-03-13T17:52:53.460Z,3.00
2019-03-13T17:55:22.935Z,3.47
2019-03-13T17:57:52.550Z,3.70
2019-03-13T18:00:24.237Z,2.80
2019-03-13T18:02:53.202Z,3.87
2019-03-13T18:05:22.327Z,3.07
2019-03-13T18:07:51.074Z,4.67
2019-03-13T18:10:19.830Z,3.10
2019-03-13T18:12:49.377Z,2.37
2019-03-13T18:15:18.515Z,3.50
2019-03-13T18:17:47.290Z,3.15
2019-03-13T18:20:17.128Z,4.00
2019-03-13T18:22:46.379Z,3.70
2019-03-13T18:25:18.000Z,4.10
2019-03-13T18:27:46.522Z,3.30
2019-03-13T18:30:20.545Z,2.47
2019-03-13T18:32:49.690Z,3.23
2019-03-13T18:35:18.878Z,5.40
2019-03-13T18:37:48.037Z,8.70
2019-03-13T18:40:17.205Z,6.20
2019-03-13T18:42:46.069Z,4.47
2019-03-13T18:45:18.107Z,3.58
2019-03-13T18:47:47.052Z,3.97
2019-03-13T18:50:16.195Z,4.23
2019-03-13T18:52:45.129Z,4.97
2019-03-13T18:55:15.700Z,6.30
2019-03-13T18:57:44.853Z,3.67
2019-03-13T19:00:31.757Z,3.90
2019-03-13T19:03:00.617Z,3.70
2019-03-13T19:05:29.743Z,4.25
2019-03-13T19:07:58.650Z,4.77
2019-03-13T19:10:27.731Z,4.40
2019-03-13T19:12:57.003Z,4.77
2019-03-13T19:15:26.811Z,4.27
2019-03-13T19:17:56.158Z,4.90
2019-03-13T19:20:25.683Z,5.17
2019-03-13T19:22:54.790Z,5.83
2019-03-13T19:25:23.797Z,4.77
2019-03-13T19:27:53.037Z,4.62
2019-03-13T19:30:23.723Z,4.13
2019-03-13T19:32:52.867Z,5.07
2019-03-13T19:35:21.877Z,4.07
2019-03-13T19:37:51.337Z,5.07
2019-03-13T19:40:20.583Z,4.40
2019-03-13T19:42:49.714Z,5.27
2019-03-13T19:45:20.972Z,4.30
2019-03-13T19:47:49.714Z,4.33
2019-03-13T19:50:18.826Z,4.80
2019-03-13T19:52:47.946Z,5.17
2019-03-13T19:55:21.081Z,3.52
2019-03-13T19:57:50.286Z,4.40
2019-03-13T20:00:21.175Z,4.50
2019-03-13T20:02:59.316Z,8.43
2019-03-13T20:05:20.922Z,4.70
2019-03-13T20:07:50.230Z,4.70
2019-03-13T20:10:21.970Z,5.70
2019-03-13T20:12:51.266Z,5.73
2019-03-13T20:15:21.036Z,6.07
2019-03-13T20:17:50.283Z,4.67
2019-03-13T20:20:19.825Z,5.87
2019-03-13T20:22:50.081Z,4.10
2019-03-13T20:25:18.975Z,4.53
2019-03-13T20:27:48.029Z,5.97
2019-03-13T20:30:18.375Z,5.10
2019-03-13T20:32:47.542Z,6.60
2019-03-13T20:35:16.664Z,8.10
2019-03-13T20:37:45.911Z,5.77
2019-03-13T20:40:19.814Z,4.60
2019-03-13T20:42:49.063Z,3.53
2019-03-13T20:45:19.917Z,4.57
2019-03-13T20:47:48.965Z,4.67
2019-03-13T20:50:18.119Z,4.37
2019-03-13T20:52:47.178Z,3.87
2019-03-13T20:55:16.601Z,4.03
2019-03-13T20:57:45.514Z,4.03
2019-03-13T21:00:18.118Z,3.40
2019-03-13T21:02:47.554Z,3.57
2019-03-13T21:05:16.576Z,2.37
2019-03-13T21:07:45.790Z,2.47
2019-03-13T21:10:17.394Z,2.90
2019-03-13T21:12:46.742Z,2.40
2019-03-13T21:15:15.910Z,2.70
2019-03-13T21:17:44.855Z,2.97
2019-03-13T21:20:14.853Z,3.00
2019-03-13T21:22:43.845Z,2.87
2019-03-13T21:25:13.342Z,2.77
2019-03-13T21:27:42.794Z,2.95
2019-03-13T21:30:15.249Z,3.03
2019-03-13T21:32:44.306Z,2.43
2019-03-13T21:35:13.196Z,2.00
2019-03-13T21:37:42.402Z,2.00
2019-03-13T21:40:12.099Z,1.87
2019-03-13T21:42:41.475Z,1.90
2019-03-13T21:45:21.655Z,1.70
2019-03-13T21:47:41.002Z,2.23
2019-03-13T21:50:10.505Z,1.52
2019-03-13T21:52:39.505Z,2.07
2019-03-13T21:55:09.337Z,2.33
2019-03-13T21:57:38.253Z,1.87
2019-03-13T22:00:13.018Z,2.20
2019-03-13T22:02:41.966Z,2.00
2019-03-13T22:05:10.695Z,1.73
2019-03-13T22:07:39.769Z,1.95
2019-03-13T22:10:08.818Z,3.30
2019-03-13T22:12:37.584Z,2.53
2019-03-13T22:15:07.395Z,2.17
2019-03-13T22:17:36.450Z,2.20
2019-03-13T22:20:06.054Z,2.02
2019-03-13T22:22:35.367Z,2.53
2019-03-13T22:25:04.485Z,3.27
2019-03-13T22:27:33.455Z,3.17
2019-03-13T22:30:02.227Z,2.40
2019-03-13T22:32:31.222Z,3.13
2019-03-13T22:35:00.408Z,3.20
2019-03-13T22:37:29.478Z,2.97
2019-03-13T22:39:58.465Z,3.60
2019-03-13T22:42:30.576Z,4.00
2019-03-13T22:44:59.235Z,5.13
2019-03-13T22:47:28.223Z,5.35
2019-03-13T22:49:57.066Z,4.53
2019-03-13T22:52:26.059Z,3.72
2019-03-13T22:54:55.284Z,4.80
2019-03-13T22:57:24.276Z,4.70
2019-03-13T22:59:53.022Z,3.97
2019-03-13T23:02:22.225Z,3.20
2019-03-13T23:04:50.967Z,3.90
2019-03-13T23:07:20.042Z,3.03
2019-03-13T23:09:49.054Z,3.25
2019-03-13T23:12:18.121Z,3.70
2019-03-13T23:14:47.139Z,3.23
2019-03-13T23:17:16.081Z,2.43
2019-03-13T23:19:44.982Z,3.00
2019-03-13T23:22:13.966Z,3.23
2019-03-13T23:24:43.018Z,3.20
2019-03-13T23:27:11.777Z,2.62
2019-03-13T23:29:40.814Z,2.70
2019-03-13T23:32:09.796Z,4.13
2019-03-13T23:34:38.542Z,2.60
2019-03-13T23:37:07.274Z,2.60
2019-03-13T23:39:36.032Z,3.30
2019-03-13T23:42:04.806Z,3.10
2019-03-13T23:44:33.814Z,2.60
2019-03-13T23:47:02.810Z,4.23
2019-03-13T23:49:31.547Z,3.08
2019-03-13T23:52:02.796Z,3.27
2019-03-13T23:54:31.083Z,4.97
2019-03-13T23:56:59.908Z,2.53
2019-03-13T23:59:28.691Z,3.10
